sensor_id;sensor_type;location;lat;lon;timestamp;pressure;altitude;pressure_sealevel;temperature;humidity
76126;BME280;65174;48.138;21.002;2023-10-19T00:02:55;99080.06;;;6.22;76.42
76126;BME280;65174;48.138;21.002;2023-10-19T00:05:57;99080.88;;;6.22;76.76
76126;BME280;65174;48.138;21.002;2023-10-19T00:08:59;99075.56;;;6.10;77.22
76126;BME280;65174;48.138;21.002;2023-10-19T00:12:01;99071.25;;;6.10;77.16
76126;BME280;65174;48.138;21.002;2023-10-19T00:15:05;99062.50;;;5.99;77.63
76126;BME280;65174;48.138;21.002;2023-10-19T00:18:08;99062.41;;;6.00;77.29
76126;BME280;65174;48.138;21.002;2023-10-19T00:21:19;99064.13;;;6.00;77.43
76126;BME280;65174;48.138;21.002;2023-10-19T00:24:21;99057.53;;;5.96;77.39
76126;BME280;65174;48.138;21.002;2023-10-19T00:27:25;99053.09;;;5.82;78.93
76126;BME280;65174;48.138;21.002;2023-10-19T00:30:29;99051.66;;;5.94;77.77
76126;BME280;65174;48.138;21.002;2023-10-19T00:33:35;99049.25;;;5.74;78.77
76126;BME280;65174;48.138;21.002;2023-10-19T00:36:41;99050.16;;;5.73;78.79
76126;BME280;65174;48.138;21.002;2023-10-19T00:39:43;99034.66;;;5.76;78.75
76126;BME280;65174;48.138;21.002;2023-10-19T00:42:48;99026.28;;;5.72;78.71
76126;BME280;65174;48.138;21.002;2023-10-19T00:45:55;99040.00;;;5.71;78.67
76126;BME280;65174;48.138;21.002;2023-10-19T00:49:02;99036.59;;;5.71;78.50
76126;BME280;65174;48.138;21.002;2023-10-19T00:52:07;99030.28;;;5.78;78.20
76126;BME280;65174;48.138;21.002;2023-10-19T00:55:15;99024.25;;;5.79;78.00
76126;BME280;65174;48.138;21.002;2023-10-19T00:58:17;99019.63;;;5.70;78.44
76126;BME280;65174;48.138;21.002;2023-10-19T01:01:27;99017.63;;;5.75;78.21
76126;BME280;65174;48.138;21.002;2023-10-19T01:04:31;99011.47;;;5.61;78.59
76126;BME280;65174;48.138;21.002;2023-10-19T01:07:36;99008.66;;;5.50;79.42
76126;BME280;65174;48.138;21.002;2023-10-19T01:10:42;99001.13;;;5.47;79.66
76126;BME280;65174;48.138;21.002;2023-10-19T01:13:47;99002.00;;;5.63;78.98
76126;BME280;65174;48.138;21.002;2023-10-19T01:16:50;98986.19;;;5.73;78.06
76126;BME280;65174;48.138;21.002;2023-10-19T01:19:52;98980.50;;;5.68;78.68
76126;BME280;65174;48.138;21.002;2023-10-19T01:23:01;98986.81;;;5.60;79.06
76126;BME280;65174;48.138;21.002;2023-10-19T01:26:10;98984.78;;;5.50;79.80
76126;BME280;65174;48.138;21.002;2023-10-19T01:29:15;98967.72;;;5.50;79.96
76126;BME280;65174;48.138;21.002;2023-10-19T01:32:19;98971.69;;;5.56;79.29
76126;BME280;65174;48.138;21.002;2023-10-19T01:35:21;98957.72;;;5.46;79.98
76126;BME280;65174;48.138;21.002;2023-10-19T01:38:23;98960.72;;;5.37;80.45
76126;BME280;65174;48.138;21.002;2023-10-19T01:41:27;98962.00;;;5.45;79.90
76126;BME280;65174;48.138;21.002;2023-10-19T01:44:33;98957.81;;;5.44;79.88
76126;BME280;65174;48.138;21.002;2023-10-19T01:48:05;98960.91;;;5.34;80.25
76126;BME280;65174;48.138;21.002;2023-10-19T01:58:19;98953.78;;;5.23;81.28
76126;BME280;65174;48.138;21.002;2023-10-19T02:24:18;98962.19;;;5.25;82.41
76126;BME280;65174;48.138;21.002;2023-10-19T02:49:24;98920.59;;;5.22;83.67
76126;BME280;65174;48.138;21.002;2023-10-19T02:59:06;98893.94;;;4.93;85.57
76126;BME280;65174;48.138;21.002;2023-10-19T03:25:54;98850.53;;;4.42;89.39
76126;BME280;65174;48.138;21.002;2023-10-19T03:30:44;98848.19;;;4.37;90.12
76126;BME280;65174;48.138;21.002;2023-10-19T04:22:09;98774.06;;;4.22;93.79
76126;BME280;65174;48.138;21.002;2023-10-19T04:43:09;98759.78;;;4.35;96.31
76126;BME280;65174;48.138;21.002;2023-10-19T04:52:50;98747.16;;;4.49;94.82
76126;BME280;65174;48.138;21.002;2023-10-19T05:26:28;98740.38;;;4.65;95.37
76126;BME280;65174;48.138;21.002;2023-10-19T05:59:03;98752.22;;;4.99;96.71
76126;BME280;65174;48.138;21.002;2023-10-19T06:08:45;98746.81;;;5.05;95.57
76126;BME280;65174;48.138;21.002;2023-10-19T06:24:03;98751.50;;;5.12;94.61
76126;BME280;65174;48.138;21.002;2023-10-19T07:09:54;98741.38;;;5.42;96.20
76126;BME280;65174;48.138;21.002;2023-10-19T08:38:35;98684.22;;;5.27;100.00
76126;BME280;65174;48.138;21.002;2023-10-19T08:48:16;98691.56;;;5.33;100.00
76126;BME280;65174;48.138;21.002;2023-10-19T09:09:59;98678.44;;;5.39;100.00
76126;BME280;65174;48.138;21.002;2023-10-19T09:44:06;98625.19;;;5.76;100.00
76126;BME280;65174;48.138;21.002;2023-10-19T09:54:04;98605.88;;;5.86;100.00
76126;BME280;65174;48.138;21.002;2023-10-19T09:59:23;98597.19;;;6.02;100.00
76126;BME280;65174;48.138;21.002;2023-10-19T10:03:50;98582.31;;;6.09;100.00
76126;BME280;65174;48.138;21.002;2023-10-19T10:08:54;98586.13;;;6.16;100.00
76126;BME280;65174;48.138;21.002;2023-10-19T10:14:29;98574.44;;;6.26;100.00
76126;BME280;65174;48.138;21.002;2023-10-19T10:29:55;98546.50;;;6.50;100.00
76126;BME280;65174;48.138;21.002;2023-10-19T10:32:58;98544.75;;;6.50;100.00
76126;BME280;65174;48.138;21.002;2023-10-19T10:36:07;98537.34;;;6.60;100.00
76126;BME280;65174;48.138;21.002;2023-10-19T10:39:19;98538.88;;;6.62;100.00
76126;BME280;65174;48.138;21.002;2023-10-19T10:42:21;98532.94;;;6.62;100.00
76126;BME280;65174;48.138;21.002;2023-10-19T10:45:23;98524.94;;;6.66;100.00
76126;BME280;65174;48.138;21.002;2023-10-19T10:48:25;98523.03;;;6.70;100.00
76126;BME280;65174;48.138;21.002;2023-10-19T10:51:28;98517.78;;;6.71;100.00
76126;BME280;65174;48.138;21.002;2023-10-19T10:54:32;98508.47;;;6.70;100.00
76126;BME280;65174;48.138;21.002;2023-10-19T10:57:34;98501.63;;;6.83;100.00
76126;BME280;65174;48.138;21.002;2023-10-19T11:00:45;98496.13;;;6.89;100.00
76126;BME280;65174;48.138;21.002;2023-10-19T11:03:49;98495.00;;;6.93;100.00
76126;BME280;65174;48.138;21.002;2023-10-19T11:06:52;98490.81;;;6.92;100.00
76126;BME280;65174;48.138;21.002;2023-10-19T11:09:57;98485.38;;;6.97;100.00
76126;BME280;65174;48.138;21.002;2023-10-19T11:13:05;98473.19;;;7.00;100.00
76126;BME280;65174;48.138;21.002;2023-10-19T11:16:07;98469.31;;;7.07;100.00
76126;BME280;65174;48.138;21.002;2023-10-19T11:19:11;98463.34;;;7.07;100.00
76126;BME280;65174;48.138;21.002;2023-10-19T11:22:13;98456.09;;;7.13;100.00
76126;BME280;65174;48.138;21.002;2023-10-19T11:28:24;98439.47;;;7.19;100.00
76126;BME280;65174;48.138;21.002;2023-10-19T11:31:30;98432.06;;;7.27;100.00
76126;BME280;65174;48.138;21.002;2023-10-19T11:49:25;98396.56;;;7.59;100.00
76126;BME280;65174;48.138;21.002;2023-10-19T11:52:27;98396.13;;;7.65;100.00
76126;BME280;65174;48.138;21.002;2023-10-19T11:55:31;98399.22;;;7.70;100.00
76126;BME280;65174;48.138;21.002;2023-10-19T11:58:33;98391.53;;;7.57;100.00
76126;BME280;65174;48.138;21.002;2023-10-19T12:29:09;98379.97;;;7.88;100.00
76126;BME280;65174;48.138;21.002;2023-10-19T12:32:13;98377.59;;;7.97;100.00
76126;BME280;65174;48.138;21.002;2023-10-19T12:35:15;98376.13;;;8.06;100.00
76126;BME280;65174;48.138;21.002;2023-10-19T12:38:20;98385.25;;;8.10;100.00
76126;BME280;65174;48.138;21.002;2023-10-19T12:41:23;98380.50;;;8.17;100.00
76126;BME280;65174;48.138;21.002;2023-10-19T12:44:29;98386.03;;;8.11;100.00
76126;BME280;65174;48.138;21.002;2023-10-19T12:47:32;98368.28;;;8.08;100.00
76126;BME280;65174;48.138;21.002;2023-10-19T12:50:34;98367.66;;;8.17;100.00
76126;BME280;65174;48.138;21.002;2023-10-19T12:53:37;98360.41;;;8.22;100.00
76126;BME280;65174;48.138;21.002;2023-10-19T12:56:40;98354.06;;;8.27;100.00
76126;BME280;65174;48.138;21.002;2023-10-19T12:59:43;98349.84;;;8.26;100.00
76126;BME280;65174;48.138;21.002;2023-10-19T13:02:45;98349.53;;;8.31;100.00
76126;BME280;65174;48.138;21.002;2023-10-19T13:05:47;98349.91;;;8.37;100.00
76126;BME280;65174;48.138;21.002;2023-10-19T13:08:51;98340.81;;;8.44;100.00
76126;BME280;65174;48.138;21.002;2023-10-19T13:11:53;98328.31;;;8.40;100.00
76126;BME280;65174;48.138;21.002;2023-10-19T13:19:03;98329.50;;;8.47;100.00
76126;BME280;65174;48.138;21.002;2023-10-19T13:22:13;98317.78;;;8.43;100.00
76126;BME280;65174;48.138;21.002;2023-10-19T13:25:16;64582.16;;;-140.13;100.00
76126;BME280;65174;48.138;21.002;2023-10-19T13:28:30;64582.16;;;-140.13;100.00
76126;BME280;65174;48.138;21.002;2023-10-19T13:31:32;64582.16;;;-140.13;100.00
76126;BME280;65174;48.138;21.002;2023-10-19T13:34:34;64582.16;;;-140.13;100.00
76126;BME280;65174;48.138;21.002;2023-10-19T13:37:38;64582.16;;;-140.13;100.00
76126;BME280;65174;48.138;21.002;2023-10-19T13:40:41;64582.16;;;-140.13;100.00
76126;BME280;65174;48.138;21.002;2023-10-19T13:43:43;64582.16;;;-140.13;100.00
76126;BME280;65174;48.138;21.002;2023-10-19T13:46:46;98285.06;;;8.10;100.00
76126;BME280;65174;48.138;21.002;2023-10-19T13:49:49;64582.16;;;-140.13;100.00
76126;BME280;65174;48.138;21.002;2023-10-19T13:52:54;64582.16;;;-140.13;100.00
76126;BME280;65174;48.138;21.002;2023-10-19T13:55:56;64582.16;;;-140.13;100.00
76126;BME280;65174;48.138;21.002;2023-10-19T13:58:58;64582.16;;;-140.13;100.00
76126;BME280;65174;48.138;21.002;2023-10-19T14:02:01;64582.16;;;-140.13;100.00
76126;BME280;65174;48.138;21.002;2023-10-19T14:05:03;64582.16;;;-140.13;100.00
76126;BME280;65174;48.138;21.002;2023-10-19T14:08:06;64582.16;;;-140.13;100.00
76126;BME280;65174;48.138;21.002;2023-10-19T14:11:08;98234.16;;;8.15;100.00
76126;BME280;65174;48.138;21.002;2023-10-19T14:14:10;64582.16;;;-140.13;100.00
76126;BME280;65174;48.138;21.002;2023-10-19T14:17:13;64582.16;;;-140.13;100.00
76126;BME280;65174;48.138;21.002;2023-10-19T14:20:16;64582.16;;;-140.13;100.00
76126;BME280;65174;48.138;21.002;2023-10-19T14:23:18;64582.16;;;-140.13;100.00
76126;BME280;65174;48.138;21.002;2023-10-19T14:26:21;64582.16;;;-140.13;100.00
76126;BME280;65174;48.138;21.002;2023-10-19T14:29:23;64582.16;;;-140.13;100.00
76126;BME280;65174;48.138;21.002;2023-10-19T14:32:25;64582.16;;;-140.13;100.00
76126;BME280;65174;48.138;21.002;2023-10-19T14:35:28;64582.16;;;-140.13;100.00
76126;BME280;65174;48.138;21.002;2023-10-19T14:38:31;64582.16;;;-140.13;100.00
76126;BME280;65174;48.138;21.002;2023-10-19T14:41:33;64582.16;;;-140.13;100.00
76126;BME280;65174;48.138;21.002;2023-10-19T14:44:35;64582.16;;;-140.13;100.00
76126;BME280;65174;48.138;21.002;2023-10-19T14:47:38;64582.16;;;-140.13;100.00
76126;BME280;65174;48.138;21.002;2023-10-19T14:50:42;64582.16;;;-140.13;100.00
76126;BME280;65174;48.138;21.002;2023-10-19T14:53:44;64582.16;;;-140.13;100.00
76126;BME280;65174;48.138;21.002;2023-10-19T14:56:48;64582.16;;;-140.13;100.00
76126;BME280;65174;48.138;21.002;2023-10-19T14:59:50;64582.16;;;-140.13;100.00
76126;BME280;65174;48.138;21.002;2023-10-19T15:02:53;64582.16;;;-140.13;100.00
76126;BME280;65174;48.138;21.002;2023-10-19T15:05:58;64582.16;;;-140.13;100.00
76126;BME280;65174;48.138;21.002;2023-10-19T15:09:01;64582.16;;;-140.13;100.00
76126;BME280;65174;48.138;21.002;2023-10-19T15:12:04;64582.16;;;-140.13;100.00
76126;BME280;65174;48.138;21.002;2023-10-19T15:15:07;98213.09;;;8.34;100.00
76126;BME280;65174;48.138;21.002;2023-10-19T15:18:10;64582.16;;;-140.13;100.00
76126;BME280;65174;48.138;21.002;2023-10-19T15:21:12;64582.16;;;-140.13;100.00
76126;BME280;65174;48.138;21.002;2023-10-19T15:24:15;98207.41;;;8.41;100.00
76126;BME280;65174;48.138;21.002;2023-10-19T15:27:18;64582.16;;;-140.13;100.00
76126;BME280;65174;48.138;21.002;2023-10-19T15:30:20;64582.16;;;-140.13;100.00
76126;BME280;65174;48.138;21.002;2023-10-19T15:33:22;64582.16;;;-140.13;100.00
76126;BME280;65174;48.138;21.002;2023-10-19T15:36:24;64582.16;;;-140.13;100.00
76126;BME280;65174;48.138;21.002;2023-10-19T15:39:26;64582.16;;;-140.13;100.00
76126;BME280;65174;48.138;21.002;2023-10-19T15:42:29;64582.16;;;-140.13;100.00
76126;BME280;65174;48.138;21.002;2023-10-19T15:45:31;64582.16;;;-140.13;100.00
76126;BME280;65174;48.138;21.002;2023-10-19T15:48:36;64582.16;;;-140.13;100.00
76126;BME280;65174;48.138;21.002;2023-10-19T15:51:39;64582.16;;;-140.13;100.00
76126;BME280;65174;48.138;21.002;2023-10-19T15:54:42;64582.16;;;-140.13;100.00
76126;BME280;65174;48.138;21.002;2023-10-19T15:57:44;64582.16;;;-140.13;100.00
76126;BME280;65174;48.138;21.002;2023-10-19T16:00:46;64582.16;;;-140.13;100.00
76126;BME280;65174;48.138;21.002;2023-10-19T16:03:48;64582.16;;;-140.13;100.00
76126;BME280;65174;48.138;21.002;2023-10-19T16:06:51;64582.16;;;-140.13;100.00
76126;BME280;65174;48.138;21.002;2023-10-19T16:09:53;64582.16;;;-140.13;100.00
76126;BME280;65174;48.138;21.002;2023-10-19T16:12:55;64582.16;;;-140.13;100.00
76126;BME280;65174;48.138;21.002;2023-10-19T16:16:02;64582.16;;;-140.13;100.00
76126;BME280;65174;48.138;21.002;2023-10-19T16:19:05;64582.16;;;-140.13;100.00
76126;BME280;65174;48.138;21.002;2023-10-19T16:22:08;64582.16;;;-140.13;100.00
76126;BME280;65174;48.138;21.002;2023-10-19T16:25:10;64582.16;;;-140.13;100.00
76126;BME280;65174;48.138;21.002;2023-10-19T16:28:12;64582.16;;;-140.13;100.00
76126;BME280;65174;48.138;21.002;2023-10-19T16:31:15;64582.16;;;-140.13;100.00
76126;BME280;65174;48.138;21.002;2023-10-19T16:34:18;64582.16;;;-140.13;100.00
76126;BME280;65174;48.138;21.002;2023-10-19T16:37:21;64582.16;;;-140.13;100.00
76126;BME280;65174;48.138;21.002;2023-10-19T16:40:26;64582.16;;;-140.13;100.00
76126;BME280;65174;48.138;21.002;2023-10-19T16:43:30;64582.16;;;-140.13;100.00
76126;BME280;65174;48.138;21.002;2023-10-19T16:46:33;64582.16;;;-140.13;100.00
76126;BME280;65174;48.138;21.002;2023-10-19T16:49:36;64582.16;;;-140.13;100.00
76126;BME280;65174;48.138;21.002;2023-10-19T16:52:38;64582.16;;;-140.13;100.00
76126;BME280;65174;48.138;21.002;2023-10-19T16:55:42;64582.16;;;-140.13;100.00
76126;BME280;65174;48.138;21.002;2023-10-19T16:58:44;64582.16;;;-140.13;100.00
76126;BME280;65174;48.138;21.002;2023-10-19T17:01:48;64582.16;;;-140.13;100.00
76126;BME280;65174;48.138;21.002;2023-10-19T17:04:53;64582.16;;;-140.13;100.00
76126;BME280;65174;48.138;21.002;2023-10-19T17:07:55;64582.16;;;-140.13;100.00
76126;BME280;65174;48.138;21.002;2023-10-19T17:10:58;98207.41;;;8.41;100.00
76126;BME280;65174;48.138;21.002;2023-10-19T17:14:03;98207.41;;;8.41;100.00
76126;BME280;65174;48.138;21.002;2023-10-19T17:17:06;98207.41;;;8.41;100.00
76126;BME280;65174;48.138;21.002;2023-10-19T17:20:11;98207.41;;;8.41;100.00
76126;BME280;65174;48.138;21.002;2023-10-19T17:23:13;98207.41;;;8.41;100.00
76126;BME280;65174;48.138;21.002;2023-10-19T17:26:17;98207.41;;;8.41;100.00
76126;BME280;65174;48.138;21.002;2023-10-19T17:29:20;98207.41;;;8.41;100.00
76126;BME280;65174;48.138;21.002;2023-10-19T17:32:22;98207.41;;;8.41;100.00
76126;BME280;65174;48.138;21.002;2023-10-19T17:35:24;98130.09;;;8.55;100.00
76126;BME280;65174;48.138;21.002;2023-10-19T17:38:27;98127.63;;;8.54;100.00
76126;BME280;65174;48.138;21.002;2023-10-19T17:41:29;98124.03;;;8.56;100.00
76126;BME280;65174;48.138;21.002;2023-10-19T17:44:32;98124.03;;;8.56;100.00
76126;BME280;65174;48.138;21.002;2023-10-19T17:47:35;98124.03;;;8.56;100.00
76126;BME280;65174;48.138;21.002;2023-10-19T17:50:38;98121.47;;;8.56;100.00
76126;BME280;65174;48.138;21.002;2023-10-19T17:53:41;98109.66;;;8.54;100.00
76126;BME280;65174;48.138;21.002;2023-10-19T17:56:43;98085.69;;;8.53;100.00
76126;BME280;65174;48.138;21.002;2023-10-19T17:59:50;98085.69;;;8.53;100.00
76126;BME280;65174;48.138;21.002;2023-10-19T18:02:52;98074.94;;;8.48;100.00
76126;BME280;65174;48.138;21.002;2023-10-19T18:05:56;98083.25;;;8.52;100.00
76126;BME280;65174;48.138;21.002;2023-10-19T18:09:01;98073.88;;;8.51;100.00
76126;BME280;65174;48.138;21.002;2023-10-19T18:12:04;98073.88;;;8.51;100.00
76126;BME280;65174;48.138;21.002;2023-10-19T18:15:07;98073.88;;;8.51;100.00
76126;BME280;65174;48.138;21.002;2023-10-19T18:18:14;98073.88;;;8.51;100.00
76126;BME280;65174;48.138;21.002;2023-10-19T18:21:16;98062.34;;;8.56;100.00
76126;BME280;65174;48.138;21.002;2023-10-19T18:24:20;98062.34;;;8.56;100.00
76126;BME280;65174;48.138;21.002;2023-10-19T18:27:23;98063.81;;;8.59;100.00
76126;BME280;65174;48.138;21.002;2023-10-19T18:31:23;64582.16;;;-140.13;100.00
76126;BME280;65174;48.138;21.002;2023-10-19T18:35:27;64582.16;;;-140.13;100.00
76126;BME280;65174;48.138;21.002;2023-10-19T18:39:30;64582.16;;;-140.13;100.00
76126;BME280;65174;48.138;21.002;2023-10-19T18:43:31;64582.16;;;-140.13;100.00
76126;BME280;65174;48.138;21.002;2023-10-19T18:47:32;64582.16;;;-140.13;100.00
76126;BME280;65174;48.138;21.002;2023-10-19T18:51:33;64582.16;;;-140.13;100.00
76126;BME280;65174;48.138;21.002;2023-10-19T18:55:34;64582.16;;;-140.13;100.00
76126;BME280;65174;48.138;21.002;2023-10-19T18:59:35;64582.16;;;-140.13;100.00
76126;BME280;65174;48.138;21.002;2023-10-19T19:03:35;64582.16;;;-140.13;100.00
76126;BME280;65174;48.138;21.002;2023-10-19T19:07:37;64582.16;;;-140.13;100.00
76126;BME280;65174;48.138;21.002;2023-10-19T19:11:37;64582.16;;;-140.13;100.00
76126;BME280;65174;48.138;21.002;2023-10-19T19:15:42;64582.16;;;-140.13;100.00
76126;BME280;65174;48.138;21.002;2023-10-19T19:19:44;64582.16;;;-140.13;100.00
76126;BME280;65174;48.138;21.002;2023-10-19T19:23:45;64582.16;;;-140.13;100.00
76126;BME280;65174;48.138;21.002;2023-10-19T19:27:46;64582.16;;;-140.13;100.00
76126;BME280;65174;48.138;21.002;2023-10-19T19:31:47;64582.16;;;-140.13;100.00
76126;BME280;65174;48.138;21.002;2023-10-19T19:35:49;64582.16;;;-140.13;100.00
76126;BME280;65174;48.138;21.002;2023-10-19T19:39:49;64582.16;;;-140.13;100.00
76126;BME280;65174;48.138;21.002;2023-10-19T19:48:14;64582.16;;;-140.13;100.00
76126;BME280;65174;48.138;21.002;2023-10-19T19:52:14;64582.16;;;-140.13;100.00
76126;BME280;65174;48.138;21.002;2023-10-19T19:56:06;64582.16;;;-140.13;100.00
76126;BME280;65174;48.138;21.002;2023-10-19T20:00:09;64582.16;;;-140.13;100.00
76126;BME280;65174;48.138;21.002;2023-10-19T20:04:16;64582.16;;;-140.13;100.00
76126;BME280;65174;48.138;21.002;2023-10-19T20:08:16;64582.16;;;-140.13;100.00
76126;BME280;65174;48.138;21.002;2023-10-19T20:12:17;64582.16;;;-140.13;100.00
76126;BME280;65174;48.138;21.002;2023-10-19T20:16:18;64582.16;;;-140.13;100.00
76126;BME280;65174;48.138;21.002;2023-10-19T20:20:18;64582.16;;;-140.13;100.00
76126;BME280;65174;48.138;21.002;2023-10-19T20:24:23;64582.16;;;-140.13;100.00
76126;BME280;65174;48.138;21.002;2023-10-19T20:28:24;64582.16;;;-140.13;100.00
76126;BME280;65174;48.138;21.002;2023-10-19T20:32:24;64582.16;;;-140.13;100.00
76126;BME280;65174;48.138;21.002;2023-10-19T20:36:25;64582.16;;;-140.13;100.00
76126;BME280;65174;48.138;21.002;2023-10-19T20:40:25;64582.16;;;-140.13;100.00
76126;BME280;65174;48.138;21.002;2023-10-19T20:44:31;64582.16;;;-140.13;100.00
76126;BME280;65174;48.138;21.002;2023-10-19T20:48:53;64582.16;;;-140.13;100.00
76126;BME280;65174;48.138;21.002;2023-10-19T20:52:56;64582.16;;;-140.13;100.00
76126;BME280;65174;48.138;21.002;2023-10-19T20:56:58;64582.16;;;-140.13;100.00
76126;BME280;65174;48.138;21.002;2023-10-19T21:01:03;64582.16;;;-140.13;100.00
76126;BME280;65174;48.138;21.002;2023-10-19T21:05:05;64582.16;;;-140.13;100.00
76126;BME280;65174;48.138;21.002;2023-10-19T21:09:06;64582.16;;;-140.13;100.00
76126;BME280;65174;48.138;21.002;2023-10-19T21:13:05;64582.16;;;-140.13;100.00
76126;BME280;65174;48.138;21.002;2023-10-19T21:16:20;64582.16;;;-140.13;100.00
76126;BME280;65174;48.138;21.002;2023-10-19T21:20:20;64582.16;;;-140.13;100.00
76126;BME280;65174;48.138;21.002;2023-10-19T21:23:54;98063.81;;;8.59;100.00
76126;BME280;65174;48.138;21.002;2023-10-19T21:27:07;98063.81;;;8.59;100.00
76126;BME280;65174;48.138;21.002;2023-10-19T21:30:52;64582.16;;;-140.13;100.00
76126;BME280;65174;48.138;21.002;2023-10-19T21:34:53;64582.16;;;-140.13;100.00
76126;BME280;65174;48.138;21.002;2023-10-19T21:38:51;64582.16;;;-140.13;100.00
76126;BME280;65174;48.138;21.002;2023-10-19T21:42:44;64582.16;;;-140.13;100.00
76126;BME280;65174;48.138;21.002;2023-10-19T21:51:15;64582.16;;;-140.13;100.00
76126;BME280;65174;48.138;21.002;2023-10-19T21:54:48;98063.81;;;8.59;100.00
76126;BME280;65174;48.138;21.002;2023-10-19T21:58:48;64582.16;;;-140.13;100.00
76126;BME280;65174;48.138;21.002;2023-10-19T22:02:03;64582.16;;;-140.13;100.00
76126;BME280;65174;48.138;21.002;2023-10-19T22:05:06;97839.16;;;9.03;100.00
76126;BME280;65174;48.138;21.002;2023-10-19T22:08:26;97830.25;;;9.07;100.00
76126;BME280;65174;48.138;21.002;2023-10-19T22:11:31;64582.16;;;-140.13;100.00
76126;BME280;65174;48.138;21.002;2023-10-19T22:14:35;97830.25;;;9.07;100.00
76126;BME280;65174;48.138;21.002;2023-10-19T22:17:37;97844.31;;;9.03;100.00
76126;BME280;65174;48.138;21.002;2023-10-19T22:20:40;97844.31;;;9.03;100.00
76126;BME280;65174;48.138;21.002;2023-10-19T22:23:42;97844.03;;;9.06;100.00
76126;BME280;65174;48.138;21.002;2023-10-19T22:26:44;97834.81;;;9.03;100.00
76126;BME280;65174;48.138;21.002;2023-10-19T22:29:47;97834.81;;;9.03;100.00
76126;BME280;65174;48.138;21.002;2023-10-19T22:32:50;97830.03;;;8.99;100.00
76126;BME280;65174;48.138;21.002;2023-10-19T22:35:53;97830.72;;;9.01;100.00
76126;BME280;65174;48.138;21.002;2023-10-19T22:38:56;97822.63;;;9.05;100.00
76126;BME280;65174;48.138;21.002;2023-10-19T22:41:58;97820.88;;;9.06;100.00
76126;BME280;65174;48.138;21.002;2023-10-19T22:45:00;97809.00;;;9.05;100.00
76126;BME280;65174;48.138;21.002;2023-10-19T22:48:17;97811.81;;;9.02;100.00
76126;BME280;65174;48.138;21.002;2023-10-19T22:51:19;97810.75;;;9.04;100.00
76126;BME280;65174;48.138;21.002;2023-10-19T22:54:24;97814.13;;;9.05;100.00
76126;BME280;65174;48.138;21.002;2023-10-19T22:57:27;97814.38;;;9.02;100.00
76126;BME280;65174;48.138;21.002;2023-10-19T23:00:29;97820.72;;;8.98;100.00
76126;BME280;65174;48.138;21.002;2023-10-19T23:03:31;97814.88;;;8.96;100.00
76126;BME280;65174;48.138;21.002;2023-10-19T23:06:33;97816.63;;;8.95;100.00
76126;BME280;65174;48.138;21.002;2023-10-19T23:09:35;97811.88;;;8.91;100.00
76126;BME280;65174;48.138;21.002;2023-10-19T23:12:38;97803.59;;;8.87;100.00
76126;BME280;65174;48.138;21.002;2023-10-19T23:15:43;97796.56;;;8.89;100.00
76126;BME280;65174;48.138;21.002;2023-10-19T23:18:47;97804.59;;;8.96;100.00
76126;BME280;65174;48.138;21.002;2023-10-19T23:21:50;97797.44;;;8.99;100.00
76126;BME280;65174;48.138;21.002;2023-10-19T23:24:55;97799.88;;;9.01;100.00
76126;BME280;65174;48.138;21.002;2023-10-19T23:28:00;97796.38;;;9.02;100.00
76126;BME280;65174;48.138;21.002;2023-10-19T23:31:06;97803.25;;;9.01;100.00
76126;BME280;65174;48.138;21.002;2023-10-19T23:34:10;97798.81;;;9.03;100.00
76126;BME280;65174;48.138;21.002;2023-10-19T23:37:11;97799.94;;;9.10;100.00
76126;BME280;65174;48.138;21.002;2023-10-19T23:40:15;97796.69;;;9.08;100.00
76126;BME280;65174;48.138;21.002;2023-10-19T23:43:17;97788.97;;;9.08;100.00
76126;BME280;65174;48.138;21.002;2023-10-19T23:46:19;97784.50;;;9.10;100.00
76126;BME280;65174;48.138;21.002;2023-10-19T23:49:21;97780.84;;;9.13;100.00
76126;BME280;65174;48.138;21.002;2023-10-19T23:52:23;97775.13;;;9.09;100.00
76126;BME280;65174;48.138;21.002;2023-10-19T23:55:25;97775.13;;;9.09;100.00
76126;BME280;65174;48.138;21.002;2023-10-19T23:58:27;97764.59;;;9.12;100.00
